Pagrindinis puslapis
METAR-TAF:

METAR-TAF

Oro uostai :

Ormond Beach Municipal Airport

Ormond Beach, Florida, Jungtinės Amerikos Valstijos

platuma: 29-18-04N, ilguma: 081-06-49W, Aukštis: 9 m

Dabartinis oras

Ataskaita buvo paskelbta 42 minutes, ne 16:50 UTC
Vėjas 4 kt iš Šiaurės
Temperatūra 23°C
Drėgmė 61%
Slėgis 1014 hPa
Matomumas: 11.3 km
Giedras dangus

METAR: KOMN 171650Z 35004KT 7SM CLR 23/15 A2995

Laikas: 13:32 (17:32 UTC)


TAF: trūkstamas

Orai ataskaitas ir orų prognozės (METAR, TAF).

turimą stotys yra geltonos ir raudonos taškus žemėlapyje.

Perkelti pele per norėdami pamatyti stoties vardą.

Tada spustelėkite, norėdami matyti oro stebėjimo ir prognozės.

Norėdami pakeisti žemėlapį: spustelėkite ant žalios mygtukų su juodo kryžiaus žemyn,; žalią mygtuką su brūkšneliu, jei norite nutolinti; arba žalių rodyklių gretimoms žemėlapius.


METAR-TAF: